Time;durP1;ratioP1;P1;durP2;ratioP2;P2;SDS_P1;SDS_P2;PMS_P1;PMS_P2;Temp;Humidity;BMP_temperature;BMP_pressure;BME280_temperature;BME280_humidity;BME280_pressure;Samples;Min_cycle;Max_cycle;Signal;HPM_P1;HPM_P2
2022/12/03 00:01:41;;;;;;;3.47;1.08;;;23.50;58.80;;;;;;4174067;28;20595;-66
2022/12/03 00:04:04;;;;;;;4.50;1.20;;;23.50;58.80;;;;;;4168412;28;20029;-66
2022/12/03 00:06:27;;;;;;;4.47;1.08;;;23.50;58.80;;;;;;4163311;28;20043;-67
2022/12/03 00:08:49;;;;;;;4.10;0.88;;;23.50;58.60;;;;;;4167370;28;20055;-66
2022/12/03 00:11:12;;;;;;;2.40;1.13;;;23.50;58.60;;;;;;4164345;28;20045;-67
2022/12/03 00:13:37;;;;;;;0.75;0.60;;;23.60;58.60;;;;;;4162906;28;20036;-67
2022/12/03 00:16:00;;;;;;;3.08;0.80;;;23.60;58.60;;;;;;4159269;28;20083;-68
2022/12/03 00:18:22;;;;;;;10.63;1.60;;;23.60;58.60;;;;;;4168428;28;20037;-68
2022/12/03 00:20:45;;;;;;;10.30;1.33;;;23.60;58.30;;;;;;4165616;28;20848;-68
2022/12/03 00:23:10;;;;;;;4.07;1.45;;;23.60;58.20;;;;;;4159536;28;20037;-65
2022/12/03 00:25:32;;;;;;;11.07;2.00;;;23.60;58.10;;;;;;4165854;28;20124;-68
2022/12/03 00:27:55;;;;;;;6.20;1.98;;;23.60;57.70;;;;;;4168702;28;20094;-69
2022/12/03 00:30:18;;;;;;;4.80;1.60;;;23.60;57.10;;;;;;4172081;28;20071;-69
2022/12/03 00:32:40;;;;;;;12.75;2.45;;;23.60;57.30;;;;;;4169014;28;20094;-68
2022/12/03 00:35:03;;;;;;;11.30;2.45;;;23.60;57.10;;;;;;4172127;28;20051;-68
2022/12/03 00:37:25;;;;;;;6.72;1.95;;;23.60;56.60;;;;;;4172241;28;20127;-69
2022/12/03 00:39:48;;;;;;;5.03;1.88;;;23.60;56.40;;;;;;4171796;28;20045;-70
2022/12/03 00:42:11;;;;;;;5.05;1.77;;;23.50;56.30;;;;;;4172566;28;20479;-68
2022/12/03 00:44:33;;;;;;;4.57;1.88;;;23.50;56.20;;;;;;4170697;28;20064;-67
2022/12/03 00:46:56;;;;;;;4.50;1.88;;;23.50;56.30;;;;;;4168644;28;20073;-73
2022/12/03 00:49:18;;;;;;;3.65;1.58;;;23.50;56.30;;;;;;4164422;28;20041;-71
2022/12/03 00:51:41;;;;;;;3.85;1.30;;;23.40;56.20;;;;;;4171880;28;20041;-73
2022/12/03 00:54:03;;;;;;;2.60;1.23;;;23.50;56.10;;;;;;4172332;28;20040;-73
2022/12/03 00:56:26;;;;;;;4.70;1.65;;;23.50;56.20;;;;;;4174758;28;20045;-72
2022/12/03 00:58:48;;;;;;;4.53;1.60;;;23.50;56.20;;;;;;4174537;28;20633;-73
2022/12/03 01:01:11;;;;;;;3.65;1.73;;;23.50;56.10;;;;;;4174997;28;20126;-72
2022/12/03 01:03:34;;;;;;;4.38;1.45;;;23.50;56.10;;;;;;4174590;28;20068;-73
2022/12/03 01:05:56;;;;;;;2.35;1.45;;;23.50;56.10;;;;;;4173469;28;20099;-72
2022/12/03 01:08:19;;;;;;;7.30;1.70;;;23.50;56.00;;;;;;4174451;28;20081;-71
2022/12/03 01:10:41;;;;;;;3.20;1.35;;;23.50;56.00;;;;;;4172984;28;20044;-74
2022/12/03 01:13:04;;;;;;;2.45;1.20;;;23.50;55.90;;;;;;4174128;28;20774;-74
2022/12/03 01:15:26;;;;;;;3.78;1.50;;;23.50;55.80;;;;;;4165629;28;20475;-74
2022/12/03 01:17:49;;;;;;;3.60;1.10;;;23.50;55.80;;;;;;4171999;28;20146;-72
2022/12/03 01:20:12;;;;;;;2.83;1.25;;;23.50;55.70;;;;;;4167676;28;20124;-74
2022/12/03 01:22:35;;;;;;;3.45;1.42;;;23.50;55.70;;;;;;4167141;28;20079;-73
2022/12/03 01:24:58;;;;;;;2.17;1.17;;;23.50;55.70;;;;;;4171805;28;20771;-73
2022/12/03 01:27:20;;;;;;;2.63;1.13;;;23.50;55.70;;;;;;4172080;28;20048;-72
2022/12/03 01:29:43;;;;;;;3.60;1.20;;;23.50;55.70;;;;;;4172783;28;20037;-73
2022/12/03 01:32:21;;;;;;;2.92;1.10;;;23.50;55.60;;;;;;4171523;28;20086;-73
2022/12/03 01:34:51;;;;;;;3.75;1.40;;;23.50;55.70;;;;;;4170865;28;20029;-73
2022/12/03 01:37:14;;;;;;;3.25;1.40;;;23.50;55.70;;;;;;4169891;28;20126;-72
2022/12/03 01:39:37;;;;;;;2.85;1.20;;;23.50;56.40;;;;;;4174175;28;20063;-73
2022/12/03 01:42:00;;;;;;;1.95;1.13;;;23.50;55.70;;;;;;4170534;28;20037;-72
2022/12/03 01:44:28;;;;;;;2.83;1.25;;;23.50;55.70;;;;;;4168949;28;20764;-73
2022/12/03 01:46:53;;;;;;;4.22;1.50;;;23.50;55.60;;;;;;4170008;28;20040;-72
2022/12/03 01:49:21;;;;;;;2.33;1.42;;;23.60;55.60;;;;;;4166260;28;20484;-72
2022/12/03 01:51:48;;;;;;;1.67;0.90;;;23.60;55.60;;;;;;4168695;28;20395;-74
2022/12/03 01:54:43;;;;;;;3.08;1.42;;;23.60;55.60;;;;;;4170654;28;20122;-73
2022/12/03 01:57:25;;;;;;;1.73;0.88;;;23.60;55.60;;;;;;4168327;28;20040;-73
2022/12/03 01:59:48;;;;;;;2.65;1.23;;;23.60;55.60;;;;;;4171480;28;20049;-67
2022/12/03 02:02:24;;;;;;;2.35;0.80;;;23.60;55.50;;;;;;4170960;28;20049;-68
2022/12/03 02:04:47;;;;;;;2.05;0.95;;;23.60;55.50;;;;;;4170168;28;20033;-69
2022/12/03 02:07:27;;;;;;;2.22;0.95;;;23.70;55.60;;;;;;4165455;28;20102;-67
2022/12/03 02:09:51;;;;;;;3.03;0.90;;;23.60;55.50;;;;;;4171420;28;20036;-68
2022/12/03 02:12:17;;;;;;;3.22;1.02;;;23.60;55.40;;;;;;4170732;28;20040;-69
2022/12/03 02:14:39;;;;;;;2.80;0.95;;;23.70;55.50;;;;;;4168901;28;20037;-68
2022/12/03 02:17:02;;;;;;;2.40;0.98;;;23.70;55.40;;;;;;4164619;28;20088;-69
2022/12/03 02:19:31;;;;;;;2.47;1.05;;;23.70;55.30;;;;;;4169651;28;20036;-70
2022/12/03 02:22:05;;;;;;;3.00;1.00;;;23.70;55.20;;;;;;4171184;28;20431;-68
2022/12/03 02:24:45;;;;;;;2.22;1.05;;;23.70;55.20;;;;;;4166615;28;20059;-68
2022/12/03 02:27:08;;;;;;;1.25;0.70;;;23.70;55.10;;;;;;4170725;28;20147;-68
2022/12/03 02:29:30;;;;;;;2.97;1.23;;;23.70;54.90;;;;;;4171753;28;20049;-68
2022/12/03 02:31:53;;;;;;;1.55;0.82;;;23.70;54.90;;;;;;4171668;28;20070;-69
2022/12/03 02:34:34;;;;;;;3.38;0.90;;;23.80;54.90;;;;;;4171900;28;20310;-71
2022/12/03 02:36:56;;;;;;;1.58;0.85;;;23.80;54.90;;;;;;4184727;28;20035;-72
2022/12/03 02:39:19;;;;;;;3.13;1.23;;;23.80;54.90;;;;;;4167589;28;20156;-72
2022/12/03 02:44:22;;;;;;;1.05;0.60;;;23.80;54.70;;;;;;4167280;28;20045;-72
2022/12/03 02:46:45;;;;;;;2.53;0.93;;;23.80;54.60;;;;;;4172506;28;20093;-73
2022/12/03 02:49:07;;;;;;;2.15;1.00;;;23.80;54.60;;;;;;4172147;28;20044;-71
2022/12/03 02:51:30;;;;;;;1.90;0.85;;;23.80;54.50;;;;;;4169606;28;20048;-71
2022/12/03 02:53:54;;;;;;;2.00;0.77;;;23.80;54.40;;;;;;4170610;28;20471;-72
2022/12/03 02:56:21;;;;;;;1.30;0.80;;;23.80;54.40;;;;;;4163371;28;20068;-68
2022/12/03 02:58:46;;;;;;;2.17;0.77;;;23.80;54.40;;;;;;4171997;28;20037;-66
2022/12/03 03:01:09;;;;;;;2.30;0.90;;;23.80;54.30;;;;;;4170005;28;20037;-68
2022/12/03 03:03:36;;;;;;;1.48;0.70;;;23.80;54.40;;;;;;4171617;28;20044;-69
2022/12/03 03:06:01;;;;;;;2.45;0.80;;;23.90;54.40;;;;;;4172502;28;20576;-69
2022/12/03 03:08:40;;;;;;;3.00;1.13;;;23.90;54.40;;;;;;4127329;28;20507;-68
2022/12/03 03:11:03;;;;;;;1.38;0.63;;;23.90;54.40;;;;;;4170963;28;20140;-68
2022/12/03 03:13:26;;;;;;;1.23;0.60;;;23.90;54.30;;;;;;4171632;28;20259;-67
2022/12/03 03:15:49;;;;;;;1.42;0.80;;;23.90;54.30;;;;;;4171675;28;20095;-67
2022/12/03 03:18:13;;;;;;;1.25;0.68;;;24.00;54.30;;;;;;4173048;28;20051;-68
2022/12/03 03:20:42;;;;;;;1.17;0.55;;;24.00;54.30;;;;;;4171983;28;20441;-75
2022/12/03 03:23:17;;;;;;;1.42;0.70;;;24.00;54.30;;;;;;4169008;28;20044;-69
2022/12/03 03:25:43;;;;;;;2.75;0.90;;;24.00;54.20;;;;;;4171194;28;20044;-70
2022/12/03 03:28:09;;;;;;;1.58;0.70;;;24.00;54.30;;;;;;4164152;28;20079;-69
2022/12/03 03:30:33;;;;;;;1.35;0.65;;;24.00;54.20;;;;;;4167025;28;20037;-69
2022/12/03 03:32:55;;;;;;;1.40;0.55;;;24.00;54.20;;;;;;4171320;28;20068;-68
2022/12/03 03:35:18;;;;;;;1.63;0.75;;;24.10;54.20;;;;;;4164948;28;20108;-69
2022/12/03 03:37:41;;;;;;;1.33;0.65;;;24.10;54.20;;;;;;4169241;28;20033;-70
2022/12/03 03:40:05;;;;;;;0.82;0.55;;;24.10;54.20;;;;;;4168521;28;20037;-68
2022/12/03 03:42:27;;;;;;;1.00;0.60;;;24.10;54.20;;;;;;4165988;28;20744;-68
2022/12/03 03:44:50;;;;;;;2.35;0.60;;;24.20;54.20;;;;;;4169984;28;20365;-69
2022/12/03 03:47:13;;;;;;;1.02;0.43;;;24.20;54.20;;;;;;4161806;28;20052;-69
2022/12/03 03:49:43;;;;;;;0.90;0.60;;;24.20;54.20;;;;;;4165488;28;20037;-70
2022/12/03 03:52:10;;;;;;;1.13;0.80;;;24.20;54.10;;;;;;4165388;28;20039;-70
2022/12/03 03:54:33;;;;;;;1.20;0.57;;;24.20;54.10;;;;;;4160885;28;20033;-70
2022/12/03 03:56:56;;;;;;;1.83;0.80;;;24.30;54.30;;;;;;4162913;28;20112;-67
2022/12/03 03:59:18;;;;;;;2.30;0.60;;;24.30;54.30;;;;;;4166860;28;20238;-70
2022/12/03 04:01:45;;;;;;;3.17;0.90;;;24.30;54.30;;;;;;4161519;28;20092;-72
2022/12/03 04:04:20;;;;;;;1.33;0.80;;;24.40;54.40;;;;;;4163746;28;20967;-69
2022/12/03 04:06:46;;;;;;;1.40;0.60;;;24.40;54.20;;;;;;4166972;28;20479;-70
2022/12/03 04:09:11;;;;;;;1.27;0.60;;;24.50;54.20;;;;;;4166990;28;20047;-70
2022/12/03 04:14:15;;;;;;;2.05;0.70;;;24.50;54.10;;;;;;4170098;28;20095;-69
2022/12/03 04:16:37;;;;;;;1.13;0.60;;;24.60;54.10;;;;;;4171117;28;20036;-66
2022/12/03 04:19:00;;;;;;;2.20;0.60;;;24.60;54.00;;;;;;4166561;28;20037;-68
2022/12/03 04:24:05;;;;;;;1.60;0.68;;;24.70;53.90;;;;;;4166703;28;20029;-69
2022/12/03 04:29:08;;;;;;;1.63;0.60;;;24.80;53.90;;;;;;4170991;28;20083;-73
2022/12/03 04:36:52;;;;;;;2.25;0.60;;;24.90;53.60;;;;;;4169811;28;20041;-75
2022/12/03 04:39:39;;;;;;;1.55;0.70;;;25.00;54.20;;;;;;4168154;28;20090;-73
2022/12/03 04:42:02;;;;;;;1.52;0.70;;;25.10;53.50;;;;;;4174204;28;20529;-72
2022/12/03 04:44:37;;;;;;;0.80;0.60;;;25.10;53.40;;;;;;4172384;28;20436;-67
2022/12/03 04:47:49;;;;;;;1.42;0.70;;;25.20;53.30;;;;;;4172352;28;20115;-71
2022/12/03 04:51:21;;;;;;;0.45;0.30;;;25.20;53.10;;;;;;4124217;28;20770;-72
2022/12/03 04:56:34;;;;;;;0.88;0.50;;;25.40;53.00;;;;;;4138120;28;20045;-72
2022/12/03 05:01:51;;;;;;;0.60;0.60;;;25.50;52.70;;;;;;4156214;28;20391;-73
2022/12/03 05:07:00;;;;;;;1.47;0.63;;;25.60;52.60;;;;;;4165352;28;20053;-71
2022/12/03 05:09:32;;;;;;;1.00;0.60;;;25.70;52.50;;;;;;4174063;28;20299;-71
2022/12/03 05:12:35;;;;;;;0.93;0.43;;;25.70;52.30;;;;;;4167222;28;20483;-72
2022/12/03 05:18:08;;;;;;;1.65;0.60;;;25.90;52.10;;;;;;4148418;23;20068;-37
2022/12/03 05:20:42;;;;;;;1.10;0.55;;;26.00;52.00;;;;;;4185273;28;20032;-40
2022/12/03 05:23:05;;;;;;;2.63;0.90;;;26.10;51.90;;;;;;4180711;28;20051;-38
2022/12/03 05:25:27;;;;;;;1.08;0.63;;;26.10;51.70;;;;;;4187281;28;20036;-38
2022/12/03 05:27:50;;;;;;;1.27;0.50;;;26.20;51.70;;;;;;4180495;28;20102;-42
2022/12/03 05:30:13;;;;;;;1.40;0.50;;;26.20;51.50;;;;;;4179045;28;20365;-39
2022/12/03 05:32:35;;;;;;;1.53;0.60;;;26.30;51.50;;;;;;4165838;28;20319;-44
2022/12/03 05:34:58;;;;;;;1.55;0.80;;;26.40;51.40;;;;;;4179334;28;20269;-41
2022/12/03 05:37:20;;;;;;;1.08;0.77;;;26.40;51.20;;;;;;4170043;28;20044;-41
2022/12/03 05:39:43;;;;;;;0.73;0.50;;;26.40;51.10;;;;;;4186178;28;20040;-39
2022/12/03 05:45:04;;;;;;;1.17;0.70;;;26.50;50.90;;;;;;4134059;28;20084;-42
2022/12/03 05:47:26;;;;;;;1.83;0.70;;;26.60;50.80;;;;;;4172921;28;20079;-40
2022/12/03 05:49:49;;;;;;;1.60;0.70;;;26.70;50.80;;;;;;4177158;28;20494;-38
2022/12/03 05:52:11;;;;;;;1.10;0.70;;;26.70;50.70;;;;;;4169815;28;20079;-38
2022/12/03 05:54:34;;;;;;;1.13;0.65;;;26.80;50.60;;;;;;4177319;28;20041;-39
2022/12/03 05:56:57;;;;;;;1.88;0.65;;;26.80;50.60;;;;;;4175899;28;20083;-38
2022/12/03 05:59:19;;;;;;;1.15;0.68;;;26.80;50.50;;;;;;4175340;28;20779;-42
2022/12/03 06:01:42;;;;;;;1.17;0.65;;;26.90;50.50;;;;;;4171442;28;20032;-38
2022/12/03 06:04:04;;;;;;;2.45;0.60;;;26.90;50.40;;;;;;4180004;28;20051;-38
2022/12/03 06:06:27;;;;;;;1.77;0.77;;;26.90;50.30;;;;;;4176432;28;20040;-42
2022/12/03 06:08:49;;;;;;;2.08;0.90;;;27.00;50.50;;;;;;4169647;28;20127;-40
2022/12/03 06:11:12;;;;;;;1.00;0.60;;;27.00;50.40;;;;;;4174132;28;20110;-39
2022/12/03 06:13:35;;;;;;;4.60;1.08;;;27.00;50.30;;;;;;4175028;28;20036;-37
2022/12/03 06:15:57;;;;;;;2.35;0.80;;;27.00;50.30;;;;;;4174757;28;20075;-42
2022/12/03 06:18:20;;;;;;;2.47;0.97;;;27.00;50.30;;;;;;4176783;28;20049;-40
2022/12/03 06:20:42;;;;;;;1.70;0.88;;;27.10;50.40;;;;;;4171059;28;20327;-40
2022/12/03 06:23:05;;;;;;;1.05;0.80;;;27.10;50.30;;;;;;4174988;28;20151;-39
2022/12/03 06:25:27;;;;;;;1.83;0.70;;;27.10;50.20;;;;;;4171185;28;20048;-44
2022/12/03 06:27:50;;;;;;;1.58;0.80;;;27.10;50.20;;;;;;4173503;28;20084;-45
2022/12/03 06:30:13;;;;;;;2.03;1.20;;;27.10;50.10;;;;;;4171908;28;20464;-39
2022/12/03 06:32:36;;;;;;;1.90;0.80;;;27.20;50.10;;;;;;4175773;28;20386;-40
2022/12/03 06:34:58;;;;;;;1.90;0.80;;;27.20;50.10;;;;;;4175778;28;20391;-41
2022/12/03 06:37:21;;;;;;;1.08;0.60;;;27.20;50.20;;;;;;4174717;28;20033;-39
2022/12/03 06:39:43;;;;;;;2.25;0.75;;;27.20;50.10;;;;;;4175211;28;20097;-39
2022/12/03 06:42:06;;;;;;;0.90;0.60;;;27.20;50.10;;;;;;4173424;28;20038;-42
2022/12/03 06:44:28;;;;;;;1.70;0.85;;;27.20;50.00;;;;;;4172259;28;20059;-42
2022/12/03 06:46:51;;;;;;;0.80;0.60;;;27.20;50.00;;;;;;4173975;28;20044;-39
2022/12/03 06:49:14;;;;;;;1.63;0.80;;;27.20;50.00;;;;;;4175462;28;20052;-41
2022/12/03 06:51:37;;;;;;;1.02;0.60;;;27.20;50.00;;;;;;4173161;28;20052;-40
2022/12/03 06:54:00;;;;;;;1.80;0.87;;;27.20;50.00;;;;;;4173259;28;20715;-39
2022/12/03 06:56:22;;;;;;;1.05;0.50;;;27.20;50.00;;;;;;4169044;28;20032;-40
2022/12/03 06:58:45;;;;;;;1.45;0.60;;;27.20;49.90;;;;;;4170778;28;20052;-38
2022/12/03 07:01:07;;;;;;;1.45;0.70;;;27.20;50.00;;;;;;4173186;28;20033;-37
2022/12/03 07:03:30;;;;;;;1.02;0.82;;;27.20;49.90;;;;;;4171740;28;20041;-42
2022/12/03 07:05:52;;;;;;;2.33;0.70;;;27.20;50.00;;;;;;4172656;28;20766;-41
2022/12/03 07:08:15;;;;;;;0.90;0.40;;;27.20;50.00;;;;;;4172159;28;20155;-39
2022/12/03 07:10:38;;;;;;;1.65;0.70;;;27.20;50.00;;;;;;4171251;28;20040;-39
2022/12/03 07:13:01;;;;;;;1.73;0.82;;;27.20;50.10;;;;;;4172458;28;20376;-39
2022/12/03 07:15:23;;;;;;;4.35;1.10;;;27.20;50.00;;;;;;4174192;28;20452;-38
2022/12/03 07:17:46;;;;;;;1.05;0.70;;;27.10;50.00;;;;;;4172953;28;20088;-39
2022/12/03 07:20:09;;;;;;;1.95;0.88;;;27.10;50.00;;;;;;4164964;28;20128;-38
2022/12/03 07:22:31;;;;;;;1.92;0.80;;;27.10;49.90;;;;;;4175320;28;20028;-41
2022/12/03 07:24:54;;;;;;;1.40;0.90;;;27.00;50.00;;;;;;4173174;28;20132;-37
2022/12/03 07:27:16;;;;;;;2.67;0.90;;;27.00;50.00;;;;;;4182314;28;20059;-37
2022/12/03 07:29:39;;;;;;;3.47;1.00;;;27.00;49.90;;;;;;4183706;28;20040;-43
2022/12/03 07:32:02;;;;;;;1.92;0.90;;;27.00;49.80;;;;;;4177761;28;20067;-39
2022/12/03 07:34:24;;;;;;;2.20;0.93;;;27.00;49.70;;;;;;4176241;28;20029;-38
2022/12/03 07:36:47;;;;;;;1.77;0.80;;;26.90;49.90;;;;;;4166879;28;21592;-39
2022/12/03 07:39:09;;;;;;;2.25;1.00;;;26.90;50.00;;;;;;4167845;28;20071;-39
2022/12/03 07:41:32;;;;;;;2.65;0.82;;;26.80;50.00;;;;;;4168046;28;20025;-39
2022/12/03 07:43:55;;;;;;;1.25;0.80;;;26.80;50.00;;;;;;4174626;28;20043;-40
2022/12/03 07:46:17;;;;;;;1.73;0.85;;;26.80;50.10;;;;;;4187964;28;20075;-38
2022/12/03 07:48:40;;;;;;;1.05;0.60;;;26.80;50.00;;;;;;4183249;28;20045;-38
2022/12/03 07:51:02;;;;;;;1.30;1.08;;;26.80;50.00;;;;;;4180189;28;20079;-43
2022/12/03 07:53:25;;;;;;;1.65;0.80;;;26.80;50.00;;;;;;4179613;28;20044;-38
2022/12/03 07:55:48;;;;;;;1.60;0.80;;;26.70;49.80;;;;;;4173251;28;20529;-44
2022/12/03 07:58:10;;;;;;;2.28;0.80;;;26.70;49.90;;;;;;4172725;28;20433;-42
2022/12/03 08:00:33;;;;;;;2.05;0.98;;;26.70;49.80;;;;;;4176260;28;20472;-43
2022/12/03 08:02:55;;;;;;;1.30;0.70;;;26.60;49.30;;;;;;4173642;28;20364;-39
2022/12/03 08:05:18;;;;;;;1.55;0.90;;;26.60;49.60;;;;;;4178234;28;20037;-40
2022/12/03 08:07:40;;;;;;;1.20;0.70;;;26.60;49.40;;;;;;4172872;28;20236;-42
2022/12/03 08:10:04;;;;;;;4.63;1.33;;;26.50;49.10;;;;;;4175834;28;20725;-38
2022/12/03 08:12:41;;;;;;;1.98;1.15;;;26.50;49.10;;;;;;4173238;28;20128;-38
2022/12/03 08:15:14;;;;;;;1.67;1.02;;;26.50;49.00;;;;;;4175891;28;20036;-41
2022/12/03 08:17:39;;;;;;;1.58;1.00;;;26.50;49.10;;;;;;4169227;28;20626;-41
2022/12/03 08:20:05;;;;;;;2.78;1.17;;;26.50;49.20;;;;;;4180384;28;20039;-38
2022/12/03 08:22:28;;;;;;;2.47;0.98;;;26.40;49.30;;;;;;4177708;28;20476;-38
2022/12/03 08:24:51;;;;;;;1.92;0.88;;;26.40;49.40;;;;;;4185258;28;20075;-40
2022/12/03 08:27:19;;;;;;;1.48;1.02;;;26.40;49.50;;;;;;4183337;28;20048;-38
2022/12/03 08:29:42;;;;;;;2.33;0.93;;;26.30;49.50;;;;;;4176023;28;20033;-38
2022/12/03 08:32:09;;;;;;;1.48;0.80;;;26.30;49.60;;;;;;4182876;28;20054;-37
2022/12/03 08:34:39;;;;;;;3.63;1.00;;;26.30;49.70;;;;;;4168535;28;20044;-37
2022/12/03 08:37:13;;;;;;;1.65;0.98;;;26.30;49.80;;;;;;4189878;28;20563;-38
2022/12/03 08:39:40;;;;;;;1.83;0.95;;;26.30;50.00;;;;;;4183357;28;20037;-38
2022/12/03 08:42:43;;;;;;;2.53;1.05;;;26.30;50.10;;;;;;4183269;28;20384;-40
2022/12/03 08:45:34;;;;;;;2.55;0.82;;;26.20;50.10;;;;;;4172948;28;20689;-39
2022/12/03 08:47:58;;;;;;;1.52;0.90;;;26.20;51.00;;;;;;4172048;28;20484;-38
2022/12/03 08:50:54;;;;;;;2.67;0.82;;;26.20;50.50;;;;;;4172685;28;20588;-40
2022/12/03 08:53:35;;;;;;;3.20;1.10;;;26.20;50.70;;;;;;4171627;28;20116;-38
2022/12/03 08:56:05;;;;;;;1.45;0.77;;;26.20;50.70;;;;;;4175555;28;20044;-39
2022/12/03 08:58:37;;;;;;;1.25;0.95;;;26.20;50.90;;;;;;4182425;28;20098;-38
2022/12/03 09:01:22;;;;;;;2.58;0.80;;;26.20;51.00;;;;;;4178921;28;20542;-39
2022/12/03 09:03:53;;;;;;;1.55;0.88;;;26.10;51.00;;;;;;4176219;28;20049;-38
2022/12/03 09:06:15;;;;;;;2.95;1.10;;;26.10;51.20;;;;;;4175837;28;20443;-38
2022/12/03 09:08:38;;;;;;;2.58;1.05;;;26.10;51.20;;;;;;4175307;28;20044;-39
2022/12/03 09:11:01;;;;;;;2.00;0.88;;;26.10;51.20;;;;;;4174646;28;20032;-38
2022/12/03 09:13:23;;;;;;;2.67;1.00;;;26.10;51.30;;;;;;4177800;28;20037;-39
2022/12/03 09:15:46;;;;;;;2.25;0.98;;;26.00;51.30;;;;;;4180367;28;20454;-39
2022/12/03 09:18:08;;;;;;;2.00;0.98;;;26.00;51.40;;;;;;4178892;28;20549;-37
2022/12/03 09:20:32;;;;;;;1.10;0.70;;;26.00;51.40;;;;;;4176170;28;20040;-40
2022/12/03 09:22:54;;;;;;;;;;;26.00;51.50;;;;;;4177986;28;20091;-41
2022/12/03 09:25:16;;;;;;;1.40;0.88;;;26.00;51.50;;;;;;4175305;28;20329;-38
2022/12/03 09:27:39;;;;;;;1.33;0.85;;;26.00;51.60;;;;;;4180957;28;20600;-39
2022/12/03 09:30:02;;;;;;;2.55;1.02;;;26.00;51.60;;;;;;4179406;28;20040;-38
2022/12/03 09:32:25;;;;;;;2.83;0.93;;;26.00;51.60;;;;;;4176274;28;20044;-38
2022/12/03 09:34:48;;;;;;;1.85;1.00;;;25.90;51.60;;;;;;4181109;28;20045;-38
2022/12/03 09:37:10;;;;;;;1.95;1.08;;;25.90;51.60;;;;;;4176911;28;20033;-39
2022/12/03 09:39:33;;;;;;;2.83;1.05;;;25.90;51.70;;;;;;4178920;28;20043;-38
2022/12/03 09:41:55;;;;;;;2.10;0.93;;;25.90;51.70;;;;;;4176647;28;20041;-39
2022/12/03 09:44:18;;;;;;;3.10;1.13;;;25.90;51.70;;;;;;4178792;28;20044;-37
2022/12/03 09:46:42;;;;;;;1.17;0.85;;;25.90;51.80;;;;;;4176943;28;20033;-37
2022/12/03 09:49:07;;;;;;;1.38;0.98;;;25.90;51.80;;;;;;4175047;28;20176;-37
2022/12/03 09:51:33;;;;;;;2.00;1.00;;;25.90;51.80;;;;;;4181798;28;20152;-38
2022/12/03 09:53:57;;;;;;;1.23;0.57;;;25.80;51.80;;;;;;4178647;28;20041;-38
2022/12/03 09:56:22;;;;;;;1.17;0.68;;;25.80;51.80;;;;;;4174873;28;20037;-40
2022/12/03 09:58:45;;;;;;;2.40;1.05;;;25.80;51.90;;;;;;4177423;28;20626;-41
2022/12/03 10:01:13;;;;;;;2.30;0.90;;;25.80;52.00;;;;;;4171833;28;20040;-38
2022/12/03 10:03:38;;;;;;;1.58;0.90;;;25.80;51.90;;;;;;4168556;28;20040;-37
2022/12/03 10:06:01;;;;;;;1.58;0.80;;;25.80;51.90;;;;;;4183059;28;20480;-39
2022/12/03 10:08:25;;;;;;;1.77;1.08;;;25.80;52.00;;;;;;4179611;28;20048;-40
2022/12/03 10:10:52;;;;;;;2.58;1.38;;;25.80;52.00;;;;;;4180996;28;20127;-38
2022/12/03 10:13:27;;;;;;;2.88;1.00;;;25.80;52.00;;;;;;4166605;28;20135;-43
2022/12/03 10:15:51;;;;;;;3.90;1.40;;;25.80;52.00;;;;;;4178752;28;20067;-38
2022/12/03 10:18:20;;;;;;;2.00;1.10;;;25.80;52.10;;;;;;4175795;28;20492;-39
2022/12/03 10:20:43;;;;;;;3.05;1.15;;;25.80;52.10;;;;;;4181710;28;20068;-42
2022/12/03 10:23:05;;;;;;;2.08;1.10;;;25.70;52.10;;;;;;4181007;28;20051;-40
2022/12/03 10:25:28;;;;;;;1.98;0.75;;;25.70;52.10;;;;;;4182009;28;20047;-37
2022/12/03 10:28:02;;;;;;;2.58;1.20;;;25.70;52.20;;;;;;4180137;28;20048;-36
2022/12/03 10:30:27;;;;;;;1.35;0.80;;;25.70;52.20;;;;;;4181116;28;20059;-38
2022/12/03 10:32:50;;;;;;;2.53;1.08;;;25.70;52.20;;;;;;4182314;28;20132;-39
2022/12/03 10:35:21;;;;;;;4.30;1.30;;;25.70;52.30;;;;;;4183638;28;20062;-37
2022/12/03 10:38:23;;;;;;;1.48;0.90;;;25.70;52.40;;;;;;4184231;28;20136;-38
2022/12/03 10:40:46;;;;;;;2.13;0.90;;;25.70;52.40;;;;;;4165455;28;20070;-39
2022/12/03 10:43:27;;;;;;;1.10;0.67;;;25.70;52.50;;;;;;4178617;28;20032;-38
2022/12/03 10:45:56;;;;;;;2.10;1.08;;;25.70;52.50;;;;;;4171535;28;20503;-38
2022/12/03 10:48:26;;;;;;;1.20;0.85;;;25.70;52.60;;;;;;4180888;28;20040;-40
2022/12/03 10:50:49;;;;;;;1.60;0.88;;;25.60;52.60;;;;;;4181581;28;20044;-38
2022/12/03 10:53:12;;;;;;;2.42;0.95;;;25.60;52.60;;;;;;4179566;28;20036;-40
2022/12/03 10:55:38;;;;;;;2.05;1.05;;;25.60;52.70;;;;;;4177718;28;20094;-39
2022/12/03 10:58:01;;;;;;;1.02;0.73;;;25.60;52.70;;;;;;4184135;28;20040;-38
2022/12/03 11:00:24;;;;;;;2.53;1.20;;;25.60;52.80;;;;;;4181620;28;20551;-38
2022/12/03 11:02:47;;;;;;;1.17;0.90;;;25.60;52.80;;;;;;4181967;28;20134;-41
2022/12/03 11:05:19;;;;;;;1.42;0.90;;;25.50;52.70;;;;;;4177573;28;20033;-39
2022/12/03 11:07:43;;;;;;;2.20;0.80;;;25.50;52.80;;;;;;4182483;28;20106;-39
2022/12/03 11:10:12;;;;;;;;;;;25.50;52.90;;;;;;4183274;28;20676;-38
2022/12/03 11:12:34;;;;;;;2.50;1.00;;;25.50;52.90;;;;;;4178929;28;20338;-39
2022/12/03 11:15:03;;;;;;;1.10;0.65;;;25.50;53.00;;;;;;4175076;28;20630;-38
2022/12/03 11:17:45;;;;;;;1.20;0.88;;;25.50;53.00;;;;;;4180561;28;20136;-38
2022/12/03 11:20:22;;;;;;;1.67;0.75;;;25.50;53.00;;;;;;4177882;28;20935;-38
2022/12/03 11:22:49;;;;;;;1.83;0.68;;;25.50;53.00;;;;;;4181843;28;20048;-40
2022/12/03 11:25:27;;;;;;;2.05;0.70;;;25.50;53.00;;;;;;4182020;28;20040;-38
2022/12/03 11:28:12;;;;;;;1.73;0.88;;;25.50;53.10;;;;;;4181598;28;20493;-38
2022/12/03 11:30:52;;;;;;;1.65;0.93;;;25.40;53.10;;;;;;4181237;28;20059;-38
2022/12/03 11:33:30;;;;;;;2.35;1.10;;;25.40;53.20;;;;;;4178890;28;20517;-37
2022/12/03 11:36:14;;;;;;;3.05;1.08;;;25.40;53.20;;;;;;4182751;28;20043;-43
2022/12/03 11:38:48;;;;;;;1.83;0.93;;;25.40;53.20;;;;;;4181403;28;20567;-38
2022/12/03 11:41:24;;;;;;;1.55;0.90;;;25.40;53.30;;;;;;4176616;28;20296;-39
2022/12/03 11:43:52;;;;;;;1.70;1.00;;;25.40;53.30;;;;;;4185431;28;20526;-39
2022/12/03 11:46:15;;;;;;;2.03;0.95;;;25.40;53.30;;;;;;4180001;28;20037;-37
2022/12/03 11:48:45;;;;;;;2.53;0.90;;;25.40;53.30;;;;;;4179980;28;20048;-43
2022/12/03 11:51:15;;;;;;;1.65;0.80;;;25.40;53.50;;;;;;4184877;28;20029;-38
2022/12/03 11:53:39;;;;;;;1.52;0.80;;;25.40;53.40;;;;;;4180097;28;20533;-38
2022/12/03 11:56:07;;;;;;;;;;;25.40;53.40;;;;;;4174664;28;20352;-38
2022/12/03 11:58:31;;;;;;;1.90;0.95;;;25.30;53.30;;;;;;4176719;28;19908;-40
2022/12/03 12:00:56;;;;;;;1.13;0.73;;;25.30;53.40;;;;;;4184307;28;20059;-39
2022/12/03 12:03:44;;;;;;;2.28;0.80;;;25.30;53.50;;;;;;4180439;28;20058;-39
2022/12/03 12:06:15;;;;;;;2.20;1.05;;;25.30;54.10;;;;;;4182092;28;20513;-39
2022/12/03 12:08:56;;;;;;;1.75;1.10;;;25.30;53.60;;;;;;4180286;28;20056;-39
2022/12/03 12:11:28;;;;;;;3.40;1.10;;;25.20;53.60;;;;;;4179744;28;20551;-41
2022/12/03 12:13:54;;;;;;;6.13;1.15;;;25.20;53.60;;;;;;4182591;28;20044;-38
2022/12/03 12:16:48;;;;;;;3.45;1.05;;;25.20;54.20;;;;;;4179852;28;20045;-39
2022/12/03 12:19:35;;;;;;;3.80;0.82;;;25.20;54.50;;;;;;4176803;28;20087;-40
2022/12/03 12:22:19;;;;;;;1.23;0.70;;;25.20;54.70;;;;;;4164831;28;20037;-40
2022/12/03 12:24:50;;;;;;;2.85;1.10;;;25.20;54.70;;;;;;4170189;28;20116;-41
2022/12/03 12:27:35;;;;;;;3.30;0.93;;;25.30;55.00;;;;;;4180373;28;20521;-41
2022/12/03 12:30:09;;;;;;;3.08;1.00;;;25.30;55.00;;;;;;4179037;28;20044;-43
2022/12/03 12:32:34;;;;;;;2.30;0.60;;;25.30;55.20;;;;;;4180420;28;20033;-39
2022/12/03 12:35:23;;;;;;;1.42;0.63;;;25.30;55.40;;;;;;4180696;28;20048;-41
2022/12/03 12:37:59;;;;;;;3.53;0.70;;;25.40;55.50;;;;;;4182927;28;20040;-41
2022/12/03 12:40:28;;;;;;;2.13;0.90;;;25.40;55.60;;;;;;4183237;28;20040;-41
2022/12/03 12:43:00;;;;;;;2.95;0.60;;;25.40;55.60;;;;;;4180801;28;20083;-43
2022/12/03 12:45:25;;;;;;;1.73;0.73;;;25.40;55.40;;;;;;4177167;28;20036;-40
2022/12/03 12:47:50;;;;;;;2.22;0.70;;;25.40;55.40;;;;;;4183769;28;20137;-41
2022/12/03 12:50:15;;;;;;;2.40;0.82;;;25.40;55.40;;;;;;4182411;28;20390;-38
2022/12/03 12:52:49;;;;;;;5.53;0.85;;;25.50;55.60;;;;;;4167305;28;20040;-38
2022/12/03 12:55:13;;;;;;;2.03;1.08;;;25.50;55.40;;;;;;4171730;28;20037;-42
2022/12/03 12:57:36;;;;;;;2.00;0.77;;;25.50;55.50;;;;;;4172633;28;20086;-40
2022/12/03 12:59:58;;;;;;;5.40;1.10;;;25.50;55.40;;;;;;4175896;28;20087;-37
2022/12/03 13:02:30;;;;;;;4.18;1.00;;;25.50;55.50;;;;;;4171437;28;20044;-40
2022/12/03 13:04:52;;;;;;;3.15;0.85;;;25.50;56.10;;;;;;4175059;28;20040;-39
2022/12/03 13:07:15;;;;;;;3.03;0.70;;;25.50;55.50;;;;;;4173868;28;20475;-41
2022/12/03 13:09:38;;;;;;;2.92;0.90;;;25.40;55.40;;;;;;4177232;28;20059;-37
2022/12/03 13:12:06;;;;;;;1.52;0.70;;;25.40;55.40;;;;;;4173373;28;20040;-41
2022/12/03 13:14:35;;;;;;;4.15;1.02;;;25.40;55.40;;;;;;4172016;28;20119;-39
2022/12/03 13:17:00;;;;;;;6.13;0.73;;;25.40;55.40;;;;;;4171521;28;20071;-39